createdAt,value
2023-03-20T00:00:28.759Z,96.00
2023-03-20T00:02:57.303Z,95.90
2023-03-20T00:05:25.954Z,95.90
2023-03-20T00:07:55.221Z,96.10
2023-03-20T00:10:23.573Z,96.20
2023-03-20T00:12:51.927Z,96.10
2023-03-20T00:15:32.076Z,96.10
2023-03-20T00:18:00.796Z,95.90
2023-03-20T00:20:31.538Z,96.40
2023-03-20T00:23:00.055Z,96.10
2023-03-20T00:25:28.428Z,95.90
2023-03-20T00:27:56.734Z,95.90
2023-03-20T00:30:28.443Z,96.00
2023-03-20T00:32:59.054Z,96.00
2023-03-20T00:35:29.416Z,96.20
2023-03-20T00:37:58.188Z,96.60
2023-03-20T00:40:30.439Z,96.10
2023-03-20T00:43:01.981Z,95.90
2023-03-20T00:45:30.702Z,96.10
2023-03-20T00:48:00.623Z,95.90
2023-03-20T00:50:30.490Z,95.90
2023-03-20T00:52:59.260Z,96.10
2023-03-20T00:55:28.844Z,95.70
2023-03-20T00:57:58.069Z,96.10
2023-03-20T01:00:30.418Z,96.20
2023-03-20T01:03:00.678Z,95.80
2023-03-20T01:05:29.514Z,96.10
2023-03-20T01:07:57.791Z,96.00
2023-03-20T01:10:27.712Z,96.10
2023-03-20T01:12:56.362Z,96.30
2023-03-20T01:15:26.460Z,96.10
2023-03-20T01:17:54.755Z,96.00
2023-03-20T01:20:25.597Z,96.00
2023-03-20T01:22:54.427Z,96.20
2023-03-20T01:25:22.716Z,96.00
2023-03-20T01:27:51.947Z,96.30
2023-03-20T01:30:22.808Z,96.10
2023-03-20T01:32:51.396Z,96.10
2023-03-20T01:35:21.171Z,96.30
2023-03-20T01:37:51.023Z,95.90
2023-03-20T01:40:29.280Z,95.80
2023-03-20T01:42:57.644Z,96.20
2023-03-20T01:45:27.833Z,95.90
2023-03-20T01:47:56.164Z,96.10
2023-03-20T01:50:27.285Z,95.80
2023-03-20T01:53:08.032Z,96.00
2023-03-20T01:55:36.833Z,96.10
2023-03-20T01:58:07.473Z,96.10
2023-03-20T02:00:36.574Z,96.10
2023-03-20T02:03:06.136Z,96.00
2023-03-20T02:05:34.683Z,95.80
2023-03-20T02:08:13.004Z,95.80
2023-03-20T02:10:41.302Z,96.10
2023-03-20T02:13:10.887Z,96.00
2023-03-20T02:15:56.715Z,96.10
2023-03-20T02:18:25.199Z,95.80
2023-03-20T02:21:18.368Z,96.10
2023-03-20T02:24:14.816Z,95.90
2023-03-20T02:26:51.495Z,96.00
2023-03-20T02:29:59.505Z,96.10
2023-03-20T02:33:12.276Z,96.30
2023-03-20T02:36:08.616Z,96.50
2023-03-20T02:38:47.519Z,96.20
2023-03-20T02:41:19.027Z,96.00
2023-03-20T02:43:49.663Z,95.90
2023-03-20T02:46:23.367Z,95.90
2023-03-20T02:48:55.598Z,95.80
2023-03-20T02:51:25.847Z,95.70
2023-03-20T02:53:56.754Z,95.80
2023-03-20T02:56:29.186Z,95.80
2023-03-20T02:59:00.965Z,95.80
2023-03-20T03:01:31.566Z,96.00
2023-03-20T03:04:02.093Z,95.80
2023-03-20T03:06:31.621Z,96.10
2023-03-20T03:09:02.809Z,95.60
2023-03-20T03:11:31.861Z,95.90
2023-03-20T03:14:00.295Z,95.90
2023-03-20T03:16:30.292Z,95.70
2023-03-20T03:19:03.747Z,95.60
2023-03-20T03:21:32.312Z,95.70
2023-03-20T03:24:02.662Z,95.90
2023-03-20T03:26:34.576Z,95.80
2023-03-20T03:29:04.422Z,95.50
2023-03-20T03:31:32.919Z,95.80
2023-03-20T03:34:01.496Z,95.80
2023-03-20T03:36:39.353Z,95.80
2023-03-20T03:39:13.333Z,95.70
2023-03-20T03:41:42.352Z,95.80
2023-03-20T03:44:13.679Z,95.70
2023-03-20T03:46:44.756Z,96.00
2023-03-20T03:49:16.551Z,95.80
2023-03-20T03:51:45.528Z,95.70
2023-03-20T03:54:16.849Z,95.80
2023-03-20T03:56:45.736Z,95.90
2023-03-20T03:59:16.619Z,95.80
2023-03-20T04:01:45.027Z,95.70
2023-03-20T04:04:14.543Z,95.80
2023-03-20T04:06:43.355Z,95.90
2023-03-20T04:09:11.665Z,95.80
2023-03-20T04:11:41.392Z,95.90
2023-03-20T04:14:09.743Z,95.80
2023-03-20T04:16:38.119Z,95.70
2023-03-20T04:19:06.444Z,95.60
2023-03-20T04:21:34.832Z,95.60
2023-03-20T04:24:03.123Z,95.90
2023-03-20T04:26:31.915Z,96.00
2023-03-20T04:29:01.685Z,95.90
2023-03-20T04:31:30.474Z,95.90
2023-03-20T04:33:58.770Z,95.80
2023-03-20T04:36:27.107Z,96.20
2023-03-20T04:38:57.592Z,96.10
2023-03-20T04:41:26.488Z,95.90
2023-03-20T04:43:54.776Z,96.00
2023-03-20T04:46:24.512Z,95.70
2023-03-20T04:48:52.897Z,96.10
2023-03-20T04:51:21.281Z,95.80
2023-03-20T04:53:49.655Z,95.80
2023-03-20T04:56:18.001Z,95.80
2023-03-20T04:58:46.442Z,95.80
2023-03-20T05:01:14.833Z,95.70
2023-03-20T05:03:44.646Z,95.90
2023-03-20T05:06:12.979Z,95.80
2023-03-20T05:08:41.535Z,95.90
2023-03-20T05:11:09.878Z,96.00
2023-03-20T05:13:38.182Z,95.70
2023-03-20T05:16:07.363Z,95.80
2023-03-20T05:18:35.678Z,96.00
2023-03-20T05:21:05.857Z,95.90
2023-03-20T05:23:34.155Z,96.00
2023-03-20T05:26:02.520Z,95.90
2023-03-20T05:28:30.940Z,96.00
2023-03-20T05:30:59.266Z,96.10
2023-03-20T05:33:27.635Z,96.00
2023-03-20T05:35:56.020Z,95.80
2023-03-20T05:38:26.683Z,95.90
2023-03-20T05:40:58.380Z,95.90
2023-03-20T05:43:26.993Z,96.00
2023-03-20T05:45:55.566Z,95.90
2023-03-20T05:48:23.970Z,96.00
2023-03-20T05:50:52.316Z,96.00
2023-03-20T05:53:20.693Z,96.00
2023-03-20T05:55:50.416Z,96.20
2023-03-20T05:58:18.847Z,96.10
2023-03-20T06:00:47.179Z,95.90
2023-03-20T06:03:15.521Z,96.10
2023-03-20T06:05:44.916Z,95.90
2023-03-20T06:08:13.198Z,95.90
2023-03-20T06:10:41.588Z,96.00
2023-03-20T06:13:11.419Z,95.90
2023-03-20T06:15:39.959Z,96.10
2023-03-20T06:18:08.444Z,96.00
2023-03-20T06:20:36.752Z,96.40
2023-03-20T06:23:05.187Z,96.10
2023-03-20T06:25:33.645Z,95.90
2023-03-20T06:28:02.310Z,96.00
2023-03-20T06:30:32.021Z,95.90
2023-03-20T06:33:00.391Z,95.90
2023-03-20T06:35:31.210Z,95.60
2023-03-20T06:37:59.582Z,95.40
2023-03-20T06:40:28.367Z,95.50
2023-03-20T06:42:56.730Z,95.70
2023-03-20T06:45:25.020Z,95.60
2023-03-20T06:47:54.740Z,96.00
2023-03-20T06:50:23.188Z,95.90
2023-03-20T06:52:52.264Z,95.90
2023-03-20T06:55:20.795Z,95.80
2023-03-20T06:57:49.124Z,95.70
2023-03-20T07:00:19.065Z,95.50
2023-03-20T07:02:47.482Z,95.70
2023-03-20T07:05:17.554Z,95.60
2023-03-20T07:07:46.016Z,95.70
2023-03-20T07:10:14.324Z,95.80
2023-03-20T07:12:43.965Z,95.90
2023-03-20T07:15:12.614Z,95.80
2023-03-20T07:17:41.003Z,96.00
2023-03-20T07:20:10.550Z,96.90
2023-03-20T07:22:41.437Z,96.90
2023-03-20T07:25:10.758Z,97.20
2023-03-20T07:27:39.172Z,97.40
2023-03-20T07:30:08.804Z,97.10
2023-03-20T07:32:37.939Z,97.00
2023-03-20T07:35:07.312Z,97.10
2023-03-20T07:37:35.632Z,96.80
2023-03-20T07:40:06.048Z,96.60
2023-03-20T07:42:34.412Z,96.70
2023-03-20T07:45:02.716Z,96.70
2023-03-20T07:47:31.222Z,96.90
2023-03-20T07:49:59.607Z,97.10
2023-03-20T07:52:27.952Z,96.80
2023-03-20T07:54:56.302Z,97.20
2023-03-20T07:57:26.069Z,96.90
2023-03-20T07:59:54.610Z,96.90
2023-03-20T08:02:22.903Z,97.10
2023-03-20T08:04:51.312Z,96.90
2023-03-20T08:07:19.770Z,97.10
2023-03-20T08:09:48.257Z,97.10
2023-03-20T08:12:16.744Z,97.40
2023-03-20T08:14:46.529Z,97.80
2023-03-20T08:17:18.012Z,97.50
2023-03-20T08:19:47.827Z,97.00
2023-03-20T08:22:16.362Z,96.80
2023-03-20T08:24:44.737Z,96.90
2023-03-20T08:27:13.035Z,96.80
2023-03-20T08:29:41.407Z,96.70
2023-03-20T08:32:11.152Z,96.80
2023-03-20T08:34:39.530Z,96.60
2023-03-20T08:37:08.035Z,96.60
2023-03-20T08:39:36.641Z,96.50
2023-03-20T08:42:05.252Z,96.50
2023-03-20T08:44:33.568Z,96.50
2023-03-20T08:47:02.238Z,96.40
2023-03-20T08:49:31.929Z,96.40
2023-03-20T08:52:00.880Z,96.40
2023-03-20T08:54:29.414Z,96.40
2023-03-20T08:56:57.781Z,96.50
2023-03-20T08:59:26.107Z,96.60
2023-03-20T09:01:54.527Z,96.70
2023-03-20T09:04:22.846Z,96.70
2023-03-20T09:06:52.672Z,96.70
2023-03-20T09:09:26.381Z,96.60
2023-03-20T09:11:55.102Z,96.50
2023-03-20T09:14:23.597Z,96.50
2023-03-20T09:16:51.952Z,96.40
2023-03-20T09:19:20.591Z,96.50
2023-03-20T09:21:48.936Z,96.40
2023-03-20T09:24:18.626Z,96.40
2023-03-20T09:26:46.972Z,96.80
2023-03-20T09:29:15.421Z,96.50
2023-03-20T09:31:43.817Z,96.60
2023-03-20T09:34:12.262Z,96.40
2023-03-20T09:36:40.786Z,96.40
2023-03-20T09:39:09.162Z,96.50
2023-03-20T09:41:53.195Z,96.40
2023-03-20T09:44:34.195Z,96.20
2023-03-20T09:47:19.395Z,96.40
2023-03-20T09:49:54.349Z,96.40
2023-03-20T09:52:25.292Z,96.40
2023-03-20T09:54:55.643Z,96.30
2023-03-20T09:57:26.998Z,96.20
2023-03-20T09:59:57.670Z,96.10
2023-03-20T10:02:32.435Z,96.40
2023-03-20T10:05:00.820Z,96.50
2023-03-20T10:07:29.184Z,96.50
2023-03-20T10:09:57.544Z,96.20
2023-03-20T10:12:33.688Z,96.20
2023-03-20T10:15:04.189Z,96.10
2023-03-20T10:17:40.887Z,96.10
2023-03-20T10:20:13.929Z,96.20
2023-03-20T10:22:44.144Z,96.10
2023-03-20T10:25:21.137Z,96.10
2023-03-20T10:27:51.719Z,95.90
2023-03-20T10:30:38.430Z,96.10
2023-03-20T10:33:18.823Z,96.30
2023-03-20T10:35:49.473Z,96.30
2023-03-20T10:38:25.757Z,96.30
2023-03-20T10:40:54.313Z,96.50
2023-03-20T10:43:25.907Z,96.30
2023-03-20T10:45:55.102Z,96.30
2023-03-20T10:48:26.100Z,96.40
2023-03-20T10:50:56.533Z,96.30
2023-03-20T10:53:31.695Z,96.50
2023-03-20T10:56:01.969Z,96.30
2023-03-20T10:58:32.994Z,96.30
2023-03-20T11:01:02.781Z,96.30
2023-03-20T11:03:32.920Z,96.80
2023-03-20T11:06:09.689Z,96.50
2023-03-20T11:08:40.494Z,96.60
2023-03-20T11:11:08.917Z,96.50
2023-03-20T11:13:40.146Z,96.40
2023-03-20T11:16:22.851Z,96.40
2023-03-20T11:18:52.293Z,96.40
2023-03-20T11:21:22.350Z,96.30
2023-03-20T11:23:50.940Z,96.30
2023-03-20T11:26:20.056Z,96.30
2023-03-20T11:28:54.392Z,96.40
2023-03-20T11:31:26.994Z,96.40
2023-03-20T11:34:08.920Z,96.30
2023-03-20T11:36:39.465Z,96.40
2023-03-20T11:39:11.743Z,96.50
2023-03-20T11:41:46.414Z,96.60
2023-03-20T11:44:24.339Z,96.60
2023-03-20T11:46:59.129Z,96.80
2023-03-20T11:49:29.223Z,96.80
2023-03-20T11:51:58.652Z,97.00
2023-03-20T11:54:27.089Z,97.00
2023-03-20T11:56:56.388Z,97.10
2023-03-20T11:59:27.202Z,97.10
2023-03-20T12:01:56.128Z,97.00
2023-03-20T12:04:28.339Z,96.90
2023-03-20T12:06:58.327Z,97.00
2023-03-20T12:09:41.311Z,97.10
2023-03-20T12:12:16.456Z,96.80
2023-03-20T12:14:48.941Z,96.80
2023-03-20T12:17:42.360Z,96.90
2023-03-20T12:20:20.763Z,97.00
2023-03-20T12:22:52.449Z,97.00
2023-03-20T12:25:23.201Z,97.10
2023-03-20T12:27:56.982Z,96.70
2023-03-20T12:30:31.824Z,96.70
2023-03-20T12:33:02.520Z,96.60
2023-03-20T12:35:31.997Z,96.50
2023-03-20T12:38:00.833Z,96.50
2023-03-20T12:40:33.962Z,96.40
2023-03-20T12:43:05.115Z,96.40
2023-03-20T12:45:39.492Z,96.40
2023-03-20T12:48:16.883Z,96.40
2023-03-20T12:50:46.224Z,96.40
2023-03-20T12:53:30.968Z,96.50
2023-03-20T12:56:04.830Z,96.50
2023-03-20T12:58:39.068Z,96.40
2023-03-20T13:01:10.600Z,96.30
2023-03-20T13:04:03.004Z,96.40
2023-03-20T13:06:37.722Z,96.30
2023-03-20T13:09:23.083Z,96.30
2023-03-20T13:11:52.888Z,96.20
2023-03-20T13:14:23.243Z,96.30
2023-03-20T13:16:56.117Z,96.30
2023-03-20T13:19:28.281Z,96.30
2023-03-20T13:21:59.652Z,96.40
2023-03-20T13:24:33.541Z,96.20
2023-03-20T13:27:05.990Z,96.10
2023-03-20T13:29:38.943Z,96.20
2023-03-20T13:32:14.662Z,96.10
2023-03-20T13:34:54.866Z,96.20
2023-03-20T13:37:24.803Z,96.20
2023-03-20T13:40:05.825Z,96.20
2023-03-20T13:42:36.494Z,96.20
2023-03-20T13:45:07.159Z,96.10
2023-03-20T13:47:37.144Z,96.00
2023-03-20T13:50:19.307Z,96.50
2023-03-20T13:52:50.312Z,96.20
2023-03-20T13:55:21.363Z,96.20
2023-03-20T13:57:57.118Z,96.30
2023-03-20T14:00:28.314Z,96.20
2023-03-20T14:03:14.062Z,96.30
2023-03-20T14:05:43.227Z,96.20
2023-03-20T14:08:41.741Z,96.20
2023-03-20T14:11:32.450Z,96.10
2023-03-20T14:14:13.683Z,96.00
2023-03-20T14:16:42.039Z,96.00
2023-03-20T14:19:18.308Z,95.90
2023-03-20T14:21:47.117Z,96.00
2023-03-20T14:24:16.089Z,96.00
2023-03-20T14:26:44.384Z,96.10
2023-03-20T14:29:32.513Z,96.00
2023-03-20T14:32:23.358Z,96.00
2023-03-20T14:34:54.060Z,95.90
2023-03-20T14:37:30.754Z,96.00
2023-03-20T14:40:02.636Z,96.00
2023-03-20T14:42:38.368Z,96.10
2023-03-20T14:45:29.101Z,96.10
2023-03-20T14:48:01.781Z,96.20
2023-03-20T14:50:33.018Z,96.10
2023-03-20T14:53:06.410Z,96.00
2023-03-20T14:55:37.314Z,96.10
2023-03-20T14:58:06.739Z,96.20
2023-03-20T15:00:36.978Z,96.20
2023-03-20T15:03:09.473Z,96.10
2023-03-20T15:05:40.080Z,96.10
2023-03-20T15:08:09.529Z,96.10
2023-03-20T15:10:39.324Z,96.00
2023-03-20T15:13:08.432Z,96.10
2023-03-20T15:15:36.729Z,96.10
2023-03-20T15:18:06.226Z,96.10
2023-03-20T15:20:37.344Z,96.20
2023-03-20T15:23:07.165Z,96.10
2023-03-20T15:25:37.563Z,96.10
2023-03-20T15:28:06.785Z,96.20
2023-03-20T15:30:37.522Z,96.20
2023-03-20T15:33:06.090Z,96.20
2023-03-20T15:35:34.632Z,96.20
2023-03-20T15:38:07.568Z,96.20
2023-03-20T15:40:50.072Z,96.10
2023-03-20T15:43:21.931Z,96.30
2023-03-20T15:45:50.877Z,96.20
2023-03-20T15:48:20.410Z,96.20
2023-03-20T15:50:51.672Z,96.30
2023-03-20T15:53:24.720Z,96.40
2023-03-20T15:56:01.802Z,96.40
2023-03-20T15:58:36.030Z,96.40
2023-03-20T16:01:04.864Z,96.30
2023-03-20T16:03:33.403Z,96.30
2023-03-20T16:06:02.067Z,96.20
2023-03-20T16:08:32.959Z,96.20
2023-03-20T16:11:03.280Z,96.30
2023-03-20T16:13:35.439Z,96.60
2023-03-20T16:16:05.782Z,96.70
2023-03-20T16:18:37.059Z,96.70
2023-03-20T16:21:07.668Z,96.70
2023-03-20T16:23:39.457Z,96.60
2023-03-20T16:26:09.112Z,97.00
2023-03-20T16:28:37.717Z,97.20
2023-03-20T16:31:09.845Z,97.50
2023-03-20T16:33:38.512Z,97.60
2023-03-20T16:36:07.488Z,97.80
2023-03-20T16:38:37.624Z,98.00
2023-03-20T16:41:16.372Z,98.20
2023-03-20T16:43:47.502Z,98.30
2023-03-20T16:46:18.690Z,98.40
2023-03-20T16:48:47.080Z,98.40
2023-03-20T16:51:18.212Z,98.40
2023-03-20T16:53:48.786Z,98.50
2023-03-20T16:56:18.460Z,98.40
2023-03-20T16:58:46.862Z,98.40
2023-03-20T17:01:19.680Z,98.50
2023-03-20T17:03:50.532Z,98.60
2023-03-20T17:06:39.183Z,98.60
2023-03-20T17:09:18.746Z,98.70
2023-03-20T17:11:48.714Z,98.70
2023-03-20T17:14:17.122Z,98.90
2023-03-20T17:16:45.466Z,99.10
2023-03-20T17:19:15.746Z,99.10
2023-03-20T17:21:44.552Z,99.00
2023-03-20T17:24:13.136Z,99.00
2023-03-20T17:26:45.281Z,99.20
2023-03-20T17:29:13.958Z,99.20
2023-03-20T17:31:42.298Z,99.20
2023-03-20T17:34:11.667Z,99.30
2023-03-20T17:36:40.008Z,99.10
2023-03-20T17:39:08.441Z,99.10
2023-03-20T17:41:36.749Z,99.00
2023-03-20T17:44:06.665Z,98.90
2023-03-20T17:46:49.768Z,98.90
2023-03-20T17:49:26.968Z,98.80
2023-03-20T17:51:55.393Z,99.00
2023-03-20T17:54:23.730Z,98.90
2023-03-20T17:56:52.045Z,98.80
2023-03-20T17:59:21.778Z,98.90
2023-03-20T18:01:50.385Z,98.70
2023-03-20T18:04:19.747Z,98.60
2023-03-20T18:06:49.161Z,98.70
2023-03-20T18:09:17.796Z,98.80
2023-03-20T18:11:46.212Z,98.70
2023-03-20T18:14:17.879Z,98.80
2023-03-20T18:16:47.726Z,98.70
2023-03-20T18:19:22.288Z,98.80
2023-03-20T18:21:50.600Z,98.70
2023-03-20T18:24:19.056Z,98.60
2023-03-20T18:26:47.522Z,98.60
2023-03-20T18:29:15.904Z,98.60
2023-03-20T18:31:44.281Z,98.70
2023-03-20T18:34:13.966Z,98.70
2023-03-20T18:36:44.339Z,98.60
2023-03-20T18:39:16.693Z,98.60
2023-03-20T18:41:45.506Z,98.60
2023-03-20T18:44:13.861Z,98.70
2023-03-20T18:46:42.670Z,98.70
2023-03-20T18:49:15.635Z,98.70
2023-03-20T18:51:43.987Z,98.50
2023-03-20T18:54:12.303Z,98.40
2023-03-20T18:56:41.044Z,98.60
2023-03-20T18:59:10.586Z,98.70
2023-03-20T19:01:38.971Z,98.80
2023-03-20T19:04:07.393Z,98.80
2023-03-20T19:06:37.091Z,98.70
2023-03-20T19:09:05.876Z,98.70
2023-03-20T19:11:34.206Z,98.70
2023-03-20T19:14:02.536Z,98.80
2023-03-20T19:16:31.966Z,98.80
2023-03-20T19:19:01.452Z,98.80
2023-03-20T19:21:33.535Z,98.90
2023-03-20T19:24:06.438Z,98.90
2023-03-20T19:26:35.830Z,98.80
2023-03-20T19:29:08.322Z,98.80
2023-03-20T19:31:37.345Z,98.80
2023-03-20T19:34:06.780Z,98.80
2023-03-20T19:36:36.258Z,98.80
2023-03-20T19:39:07.256Z,98.70
2023-03-20T19:41:35.631Z,98.80
2023-03-20T19:44:04.036Z,99.20
2023-03-20T19:46:42.411Z,98.80
2023-03-20T19:49:18.590Z,98.80
2023-03-20T19:51:47.849Z,98.70
2023-03-20T19:54:17.593Z,98.70
2023-03-20T19:56:46.062Z,98.80
2023-03-20T19:59:16.766Z,98.80
2023-03-20T20:01:46.781Z,98.90
2023-03-20T20:04:15.383Z,98.80
2023-03-20T20:06:43.752Z,98.70
2023-03-20T20:09:12.044Z,98.80
2023-03-20T20:11:42.473Z,98.70
2023-03-20T20:14:14.654Z,99.00
2023-03-20T20:16:43.877Z,98.70
2023-03-20T20:19:12.369Z,98.70
2023-03-20T20:24:29.063Z,98.70
2023-03-20T20:29:48.969Z,98.70
2023-03-20T20:32:17.455Z,98.90
2023-03-20T20:35:35.025Z,98.90
2023-03-20T20:40:27.389Z,98.70
2023-03-20T20:43:01.337Z,98.80
2023-03-20T20:45:31.678Z,98.90
2023-03-20T20:48:00.440Z,98.80
2023-03-20T20:50:29.857Z,98.80
2023-03-20T20:52:59.032Z,98.70
2023-03-20T20:55:27.609Z,98.70
2023-03-20T20:57:57.709Z,98.60
2023-03-20T21:00:41.192Z,98.60
2023-03-20T21:03:16.380Z,98.60
2023-03-20T21:05:44.840Z,98.70
2023-03-20T21:08:14.138Z,98.70
2023-03-20T21:10:42.866Z,98.70
2023-03-20T21:13:12.551Z,98.70
2023-03-20T21:15:45.180Z,98.80
2023-03-20T21:18:13.567Z,98.80
2023-03-20T21:20:42.234Z,98.70
2023-03-20T21:23:11.259Z,98.80
2023-03-20T21:25:41.835Z,98.70
2023-03-20T21:28:13.181Z,98.70
2023-03-20T21:30:54.599Z,98.80
2023-03-20T21:33:39.816Z,98.70
2023-03-20T21:36:08.374Z,98.50
2023-03-20T21:41:25.067Z,98.60
2023-03-20T21:43:54.726Z,98.40
2023-03-20T21:47:00.002Z,98.50
2023-03-20T21:55:55.289Z,98.50
2023-03-20T21:58:22.745Z,98.60
2023-03-20T22:03:35.125Z,98.50
2023-03-20T22:12:40.659Z,98.50
2023-03-20T22:17:56.019Z,98.90
2023-03-20T22:23:52.010Z,98.50
2023-03-20T22:32:20.796Z,98.50
2023-03-20T22:35:12.936Z,98.50
2023-03-20T22:38:02.360Z,98.60
2023-03-20T22:43:50.904Z,98.40
2023-03-20T22:45:52.752Z,98.50
2023-03-20T22:48:30.293Z,98.50
2023-03-20T22:51:00.048Z,98.50
2023-03-20T22:53:28.488Z,98.50
2023-03-20T22:55:56.773Z,98.40
2023-03-20T22:58:25.281Z,98.40
2023-03-20T23:00:54.985Z,98.40
2023-03-20T23:03:39.922Z,98.40
2023-03-20T23:06:12.160Z,98.40
2023-03-20T23:08:49.157Z,98.50
2023-03-20T23:11:20.639Z,98.40
2023-03-20T23:13:49.117Z,98.50
2023-03-20T23:16:17.506Z,98.30
2023-03-20T23:18:45.915Z,98.40
2023-03-20T23:21:17.244Z,98.40
2023-03-20T23:23:47.094Z,98.40
2023-03-20T23:26:16.126Z,98.40
2023-03-20T23:28:45.706Z,98.40
2023-03-20T23:31:16.470Z,98.40
2023-03-20T23:33:45.461Z,98.50
2023-03-20T23:36:32.536Z,98.40
2023-03-20T23:39:03.545Z,98.40
2023-03-20T23:42:01.611Z,98.50
2023-03-20T23:44:20.302Z,98.50
2023-03-20T23:46:48.699Z,98.40
2023-03-20T23:49:17.416Z,98.40
2023-03-20T23:51:47.152Z,98.40
2023-03-20T23:54:18.172Z,98.40
2023-03-20T23:56:46.499Z,98.40
2023-03-20T23:59:21.404Z,98.40
